sensor_id;sensor_type;location;lat;lon;timestamp;temperature;humidity
59311;DHT22;45078;51.654;21.250;2022-09-03T00:02:27;6.30;99.90
59311;DHT22;45078;51.654;21.250;2022-09-03T00:04:46;6.30;99.90
59311;DHT22;45078;51.654;21.250;2022-09-03T00:07:48;6.30;99.90
59311;DHT22;45078;51.654;21.250;2022-09-03T00:10:29;6.30;99.90
59311;DHT22;45078;51.654;21.250;2022-09-03T00:12:59;6.20;99.90
59311;DHT22;45078;51.654;21.250;2022-09-03T00:15:28;6.10;99.90
59311;DHT22;45078;51.654;21.250;2022-09-03T00:18:06;6.10;99.90
59311;DHT22;45078;51.654;21.250;2022-09-03T00:23:06;6.10;99.90
59311;DHT22;45078;51.654;21.250;2022-09-03T00:28:42;6.00;99.90
59311;DHT22;45078;51.654;21.250;2022-09-03T00:31:20;6.00;99.90
59311;DHT22;45078;51.654;21.250;2022-09-03T00:33:53;6.00;99.90
59311;DHT22;45078;51.654;21.250;2022-09-03T00:36:44;5.90;99.90
59311;DHT22;45078;51.654;21.250;2022-09-03T00:39:22;5.90;99.90
59311;DHT22;45078;51.654;21.250;2022-09-03T00:44:44;5.80;99.90
59311;DHT22;45078;51.654;21.250;2022-09-03T00:47:48;5.80;99.90
59311;DHT22;45078;51.654;21.250;2022-09-03T00:59:22;5.80;99.90
59311;DHT22;45078;51.654;21.250;2022-09-03T01:13:06;5.70;99.90
59311;DHT22;45078;51.654;21.250;2022-09-03T01:15:44;5.70;99.90
59311;DHT22;45078;51.654;21.250;2022-09-03T01:23:47;5.70;99.90
59311;DHT22;45078;51.654;21.250;2022-09-03T01:29:29;5.60;99.90
59311;DHT22;45078;51.654;21.250;2022-09-03T01:32:24;5.60;99.90
59311;DHT22;45078;51.654;21.250;2022-09-03T01:37:52;5.50;99.90
59311;DHT22;45078;51.654;21.250;2022-09-03T01:40:42;5.50;99.90
59311;DHT22;45078;51.654;21.250;2022-09-03T01:43:42;5.40;99.90
59311;DHT22;45078;51.654;21.250;2022-09-03T01:46:23;5.40;99.90
59311;DHT22;45078;51.654;21.250;2022-09-03T01:49:18;5.40;99.90
59311;DHT22;45078;51.654;21.250;2022-09-03T01:51:58;5.40;99.90
59311;DHT22;45078;51.654;21.250;2022-09-03T02:02:42;5.30;99.90
59311;DHT22;45078;51.654;21.250;2022-09-03T02:05:23;5.30;99.90
59311;DHT22;45078;51.654;21.250;2022-09-03T02:08:03;5.30;99.90
59311;DHT22;45078;51.654;21.250;2022-09-03T02:10:54;5.30;99.90
59311;DHT22;45078;51.654;21.250;2022-09-03T02:13:22;5.20;99.90
59311;DHT22;45078;51.654;21.250;2022-09-03T02:15:52;5.20;99.90
59311;DHT22;45078;51.654;21.250;2022-09-03T02:18:57;5.20;99.90
59311;DHT22;45078;51.654;21.250;2022-09-03T02:21:26;5.30;99.90
59311;DHT22;45078;51.654;21.250;2022-09-03T02:23:52;5.20;99.90
59311;DHT22;45078;51.654;21.250;2022-09-03T02:26:21;5.20;99.90
59311;DHT22;45078;51.654;21.250;2022-09-03T02:28:49;5.30;99.90
59311;DHT22;45078;51.654;21.250;2022-09-03T02:31:15;5.30;99.90
59311;DHT22;45078;51.654;21.250;2022-09-03T02:33:43;5.20;99.90
59311;DHT22;45078;51.654;21.250;2022-09-03T02:36:11;5.20;99.90
59311;DHT22;45078;51.654;21.250;2022-09-03T02:38:40;5.20;99.90
59311;DHT22;45078;51.654;21.250;2022-09-03T02:41:06;5.30;99.90
59311;DHT22;45078;51.654;21.250;2022-09-03T02:43:41;5.20;99.90
59311;DHT22;45078;51.654;21.250;2022-09-03T02:46:19;5.10;99.90
59311;DHT22;45078;51.654;21.250;2022-09-03T02:48:45;5.10;99.90
59311;DHT22;45078;51.654;21.250;2022-09-03T02:51:12;5.20;99.90
59311;DHT22;45078;51.654;21.250;2022-09-03T02:53:38;5.20;99.90
59311;DHT22;45078;51.654;21.250;2022-09-03T02:56:04;5.20;99.90
59311;DHT22;45078;51.654;21.250;2022-09-03T02:58:30;5.30;99.90
59311;DHT22;45078;51.654;21.250;2022-09-03T03:00:56;5.40;99.90
59311;DHT22;45078;51.654;21.250;2022-09-03T03:03:23;5.40;99.90
59311;DHT22;45078;51.654;21.250;2022-09-03T03:05:53;5.50;99.90
59311;DHT22;45078;51.654;21.250;2022-09-03T03:08:21;5.50;99.90
59311;DHT22;45078;51.654;21.250;2022-09-03T03:10:51;5.50;99.90
59311;DHT22;45078;51.654;21.250;2022-09-03T03:13:18;5.60;99.90
59311;DHT22;45078;51.654;21.250;2022-09-03T03:15:44;5.60;99.90
59311;DHT22;45078;51.654;21.250;2022-09-03T03:18:12;5.60;99.90
59311;DHT22;45078;51.654;21.250;2022-09-03T03:20:39;5.70;99.90
59311;DHT22;45078;51.654;21.250;2022-09-03T03:23:06;5.70;99.90
59311;DHT22;45078;51.654;21.250;2022-09-03T03:25:34;5.70;99.90
59311;DHT22;45078;51.654;21.250;2022-09-03T03:28:00;5.70;99.90
59311;DHT22;45078;51.654;21.250;2022-09-03T03:30:26;5.80;99.90
59311;DHT22;45078;51.654;21.250;2022-09-03T03:32:53;5.70;99.90
59311;DHT22;45078;51.654;21.250;2022-09-03T03:35:19;5.70;99.90
59311;DHT22;45078;51.654;21.250;2022-09-03T03:37:45;5.70;99.90
59311;DHT22;45078;51.654;21.250;2022-09-03T03:40:11;5.70;99.90
59311;DHT22;45078;51.654;21.250;2022-09-03T03:42:37;5.70;99.90
59311;DHT22;45078;51.654;21.250;2022-09-03T03:45:04;5.80;99.90
59311;DHT22;45078;51.654;21.250;2022-09-03T03:47:31;5.70;99.90
59311;DHT22;45078;51.654;21.250;2022-09-03T03:49:58;5.70;99.90
59311;DHT22;45078;51.654;21.250;2022-09-03T03:52:25;5.80;99.90
59311;DHT22;45078;51.654;21.250;2022-09-03T03:54:52;5.80;99.90
59311;DHT22;45078;51.654;21.250;2022-09-03T03:57:19;5.80;99.90
59311;DHT22;45078;51.654;21.250;2022-09-03T03:59:46;5.80;99.90
59311;DHT22;45078;51.654;21.250;2022-09-03T04:02:12;5.90;99.90
59311;DHT22;45078;51.654;21.250;2022-09-03T04:04:38;5.90;99.90
59311;DHT22;45078;51.654;21.250;2022-09-03T04:07:04;5.90;99.90
59311;DHT22;45078;51.654;21.250;2022-09-03T04:09:30;5.90;99.90
59311;DHT22;45078;51.654;21.250;2022-09-03T04:11:56;6.00;99.90
59311;DHT22;45078;51.654;21.250;2022-09-03T04:14:26;6.00;99.90
59311;DHT22;45078;51.654;21.250;2022-09-03T04:16:52;6.00;99.90
59311;DHT22;45078;51.654;21.250;2022-09-03T04:19:18;6.00;99.90
59311;DHT22;45078;51.654;21.250;2022-09-03T04:21:47;6.10;99.90
59311;DHT22;45078;51.654;21.250;2022-09-03T04:24:13;6.10;99.90
59311;DHT22;45078;51.654;21.250;2022-09-03T04:26:39;6.10;99.90
59311;DHT22;45078;51.654;21.250;2022-09-03T04:29:09;6.10;99.90
59311;DHT22;45078;51.654;21.250;2022-09-03T04:31:36;6.10;99.90
59311;DHT22;45078;51.654;21.250;2022-09-03T04:34:02;6.20;99.90
59311;DHT22;45078;51.654;21.250;2022-09-03T04:36:31;6.30;99.90
59311;DHT22;45078;51.654;21.250;2022-09-03T04:39:00;6.30;99.90
59311;DHT22;45078;51.654;21.250;2022-09-03T04:41:28;6.40;99.90
59311;DHT22;45078;51.654;21.250;2022-09-03T04:43:55;6.50;99.90
59311;DHT22;45078;51.654;21.250;2022-09-03T04:46:26;6.60;99.90
59311;DHT22;45078;51.654;21.250;2022-09-03T04:48:56;6.80;99.90
59311;DHT22;45078;51.654;21.250;2022-09-03T04:51:24;7.00;99.90
59311;DHT22;45078;51.654;21.250;2022-09-03T04:54:01;7.30;99.90
59311;DHT22;45078;51.654;21.250;2022-09-03T04:56:29;7.40;99.90
59311;DHT22;45078;51.654;21.250;2022-09-03T04:58:57;7.70;99.90
59311;DHT22;45078;51.654;21.250;2022-09-03T05:01:26;7.90;99.90
59311;DHT22;45078;51.654;21.250;2022-09-03T05:03:56;8.20;99.90
59311;DHT22;45078;51.654;21.250;2022-09-03T05:06:22;8.40;99.90
59311;DHT22;45078;51.654;21.250;2022-09-03T05:08:51;8.70;99.90
59311;DHT22;45078;51.654;21.250;2022-09-03T05:11:17;9.00;99.90
59311;DHT22;45078;51.654;21.250;2022-09-03T05:13:47;9.10;99.90
59311;DHT22;45078;51.654;21.250;2022-09-03T05:16:14;9.30;99.90
59311;DHT22;45078;51.654;21.250;2022-09-03T05:18:40;9.50;99.90
59311;DHT22;45078;51.654;21.250;2022-09-03T05:21:12;9.60;99.90
59311;DHT22;45078;51.654;21.250;2022-09-03T05:23:39;9.90;99.90
59311;DHT22;45078;51.654;21.250;2022-09-03T05:26:09;10.20;99.90
59311;DHT22;45078;51.654;21.250;2022-09-03T05:28:38;10.60;99.90
59311;DHT22;45078;51.654;21.250;2022-09-03T05:31:08;11.00;99.90
59311;DHT22;45078;51.654;21.250;2022-09-03T05:33:38;11.40;99.90
59311;DHT22;45078;51.654;21.250;2022-09-03T05:36:07;12.00;99.90
59311;DHT22;45078;51.654;21.250;2022-09-03T05:38:33;12.50;99.90
59311;DHT22;45078;51.654;21.250;2022-09-03T05:41:01;12.60;99.90
59311;DHT22;45078;51.654;21.250;2022-09-03T05:43:28;12.90;99.90
59311;DHT22;45078;51.654;21.250;2022-09-03T05:48:28;13.70;99.90
59311;DHT22;45078;51.654;21.250;2022-09-03T05:51:02;14.20;99.90
59311;DHT22;45078;51.654;21.250;2022-09-03T05:53:30;14.50;99.90
59311;DHT22;45078;51.654;21.250;2022-09-03T05:56:00;14.70;99.90
59311;DHT22;45078;51.654;21.250;2022-09-03T05:58:34;15.20;99.90
59311;DHT22;45078;51.654;21.250;2022-09-03T06:01:08;15.60;99.90
59311;DHT22;45078;51.654;21.250;2022-09-03T06:03:34;15.80;99.90
59311;DHT22;45078;51.654;21.250;2022-09-03T06:05:59;15.90;99.90
59311;DHT22;45078;51.654;21.250;2022-09-03T06:08:25;16.90;99.90
59311;DHT22;45078;51.654;21.250;2022-09-03T06:10:57;17.60;99.70
59311;DHT22;45078;51.654;21.250;2022-09-03T06:13:23;17.20;98.10
59311;DHT22;45078;51.654;21.250;2022-09-03T06:15:49;16.90;99.90
59311;DHT22;45078;51.654;21.250;2022-09-03T06:18:15;16.90;99.90
59311;DHT22;45078;51.654;21.250;2022-09-03T06:20:41;16.70;98.50
59311;DHT22;45078;51.654;21.250;2022-09-03T06:23:06;16.30;99.90
59311;DHT22;45078;51.654;21.250;2022-09-03T06:25:32;16.10;99.40
59311;DHT22;45078;51.654;21.250;2022-09-03T06:27:58;15.80;99.80
59311;DHT22;45078;51.654;21.250;2022-09-03T06:30:24;15.80;99.90
59311;DHT22;45078;51.654;21.250;2022-09-03T06:32:51;15.80;99.90
59311;DHT22;45078;51.654;21.250;2022-09-03T06:35:17;16.10;99.90
59311;DHT22;45078;51.654;21.250;2022-09-03T06:37:43;16.30;99.90
59311;DHT22;45078;51.654;21.250;2022-09-03T06:40:10;16.40;98.90
59311;DHT22;45078;51.654;21.250;2022-09-03T06:42:41;16.30;99.90
59311;DHT22;45078;51.654;21.250;2022-09-03T06:45:08;16.20;99.90
59311;DHT22;45078;51.654;21.250;2022-09-03T06:47:34;16.10;99.90
59311;DHT22;45078;51.654;21.250;2022-09-03T06:50:00;16.10;99.90
59311;DHT22;45078;51.654;21.250;2022-09-03T06:52:29;16.10;99.90
59311;DHT22;45078;51.654;21.250;2022-09-03T06:54:55;16.20;99.90
59311;DHT22;45078;51.654;21.250;2022-09-03T06:57:21;16.40;99.90
59311;DHT22;45078;51.654;21.250;2022-09-03T06:59:47;16.50;99.90
59311;DHT22;45078;51.654;21.250;2022-09-03T07:02:13;16.50;99.90
59311;DHT22;45078;51.654;21.250;2022-09-03T07:04:39;16.50;99.90
59311;DHT22;45078;51.654;21.250;2022-09-03T07:07:05;16.50;99.90
59311;DHT22;45078;51.654;21.250;2022-09-03T07:09:38;16.60;99.90
59311;DHT22;45078;51.654;21.250;2022-09-03T07:12:04;16.70;99.90
59311;DHT22;45078;51.654;21.250;2022-09-03T07:14:31;16.80;99.90
59311;DHT22;45078;51.654;21.250;2022-09-03T07:16:56;16.80;99.90
59311;DHT22;45078;51.654;21.250;2022-09-03T07:19:22;16.90;99.90
59311;DHT22;45078;51.654;21.250;2022-09-03T07:21:48;16.80;99.90
59311;DHT22;45078;51.654;21.250;2022-09-03T07:24:14;16.50;99.90
59311;DHT22;45078;51.654;21.250;2022-09-03T07:26:41;16.10;99.90
59311;DHT22;45078;51.654;21.250;2022-09-03T07:29:11;16.30;99.90
59311;DHT22;45078;51.654;21.250;2022-09-03T07:31:41;16.40;99.90
59311;DHT22;45078;51.654;21.250;2022-09-03T07:34:11;16.60;99.90
59311;DHT22;45078;51.654;21.250;2022-09-03T07:36:42;16.50;99.90
59311;DHT22;45078;51.654;21.250;2022-09-03T07:39:11;16.80;99.90
59311;DHT22;45078;51.654;21.250;2022-09-03T07:41:38;17.00;99.90
59311;DHT22;45078;51.654;21.250;2022-09-03T07:44:10;17.10;99.90
59311;DHT22;45078;51.654;21.250;2022-09-03T07:46:37;17.30;99.90
59311;DHT22;45078;51.654;21.250;2022-09-03T07:49:05;17.50;99.90
59311;DHT22;45078;51.654;21.250;2022-09-03T07:51:34;17.70;99.90
59311;DHT22;45078;51.654;21.250;2022-09-03T07:54:01;17.80;99.90
59311;DHT22;45078;51.654;21.250;2022-09-03T07:56:28;17.60;98.80
59311;DHT22;45078;51.654;21.250;2022-09-03T07:58:57;17.60;99.90
59311;DHT22;45078;51.654;21.250;2022-09-03T08:01:25;17.80;99.90
59311;DHT22;45078;51.654;21.250;2022-09-03T08:03:54;17.70;98.80
59311;DHT22;45078;51.654;21.250;2022-09-03T08:06:22;17.90;99.80
59311;DHT22;45078;51.654;21.250;2022-09-03T08:08:53;18.00;99.10
59311;DHT22;45078;51.654;21.250;2022-09-03T08:11:21;18.00;99.30
59311;DHT22;45078;51.654;21.250;2022-09-03T08:13:57;18.10;98.20
59311;DHT22;45078;51.654;21.250;2022-09-03T08:16:27;18.20;97.00
59311;DHT22;45078;51.654;21.250;2022-09-03T08:18:53;18.00;97.60
59311;DHT22;45078;51.654;21.250;2022-09-03T08:21:19;18.20;97.20
59311;DHT22;45078;51.654;21.250;2022-09-03T08:23:52;18.40;96.60
59311;DHT22;45078;51.654;21.250;2022-09-03T08:26:20;18.60;96.20
59311;DHT22;45078;51.654;21.250;2022-09-03T08:28:47;18.80;96.00
59311;DHT22;45078;51.654;21.250;2022-09-03T08:31:14;19.00;94.80
59311;DHT22;45078;51.654;21.250;2022-09-03T08:33:46;19.10;93.00
59311;DHT22;45078;51.654;21.250;2022-09-03T08:36:15;18.80;93.00
59311;DHT22;45078;51.654;21.250;2022-09-03T08:38:43;18.80;91.80
59311;DHT22;45078;51.654;21.250;2022-09-03T08:49:53;19.50;91.00
59311;DHT22;45078;51.654;21.250;2022-09-03T08:57:52;19.30;87.00
59311;DHT22;45078;51.654;21.250;2022-09-03T09:00:19;19.40;87.40
59311;DHT22;45078;51.654;21.250;2022-09-03T09:02:58;19.50;87.70
59311;DHT22;45078;51.654;21.250;2022-09-03T09:05:37;19.30;83.40
59311;DHT22;45078;51.654;21.250;2022-09-03T09:08:50;19.70;87.20
59311;DHT22;45078;51.654;21.250;2022-09-03T09:14:13;19.80;80.60
59311;DHT22;45078;51.654;21.250;2022-09-03T09:17:06;19.80;77.50
59311;DHT22;45078;51.654;21.250;2022-09-03T09:19:53;19.70;77.00
59311;DHT22;45078;51.654;21.250;2022-09-03T09:22:48;20.00;75.60
59311;DHT22;45078;51.654;21.250;2022-09-03T09:25:21;20.20;79.10
59311;DHT22;45078;51.654;21.250;2022-09-03T09:30:18;20.00;75.00
59311;DHT22;45078;51.654;21.250;2022-09-03T09:32:44;20.20;72.10
59311;DHT22;45078;51.654;21.250;2022-09-03T09:35:12;20.20;71.00
59311;DHT22;45078;51.654;21.250;2022-09-03T09:37:50;20.10;69.70
59311;DHT22;45078;51.654;21.250;2022-09-03T09:40:28;20.10;70.30
59311;DHT22;45078;51.654;21.250;2022-09-03T09:43:12;20.20;70.20
59311;DHT22;45078;51.654;21.250;2022-09-03T09:45:39;20.20;67.10
59311;DHT22;45078;51.654;21.250;2022-09-03T09:48:30;20.10;68.10
59311;DHT22;45078;51.654;21.250;2022-09-03T09:51:29;20.20;67.30
59311;DHT22;45078;51.654;21.250;2022-09-03T09:56:30;20.40;68.50
59311;DHT22;45078;51.654;21.250;2022-09-03T09:59:14;20.30;67.90
59311;DHT22;45078;51.654;21.250;2022-09-03T10:01:42;20.20;66.80
59311;DHT22;45078;51.654;21.250;2022-09-03T10:04:24;20.20;68.70
59311;DHT22;45078;51.654;21.250;2022-09-03T10:07:00;20.40;67.10
59311;DHT22;45078;51.654;21.250;2022-09-03T10:09:29;20.30;65.20
59311;DHT22;45078;51.654;21.250;2022-09-03T10:12:21;20.30;66.40
59311;DHT22;45078;51.654;21.250;2022-09-03T10:20:50;21.10;63.50
59311;DHT22;45078;51.654;21.250;2022-09-03T10:23:24;20.90;61.60
59311;DHT22;45078;51.654;21.250;2022-09-03T10:26:35;20.90;63.80
59311;DHT22;45078;51.654;21.250;2022-09-03T10:29:00;20.40;62.20
59311;DHT22;45078;51.654;21.250;2022-09-03T10:39:22;20.80;65.10
59311;DHT22;45078;51.654;21.250;2022-09-03T10:45:18;21.40;64.90
59311;DHT22;45078;51.654;21.250;2022-09-03T10:50:55;21.30;57.90
59311;DHT22;45078;51.654;21.250;2022-09-03T10:53:32;21.40;59.30
59311;DHT22;45078;51.654;21.250;2022-09-03T10:56:21;21.40;59.50
59311;DHT22;45078;51.654;21.250;2022-09-03T11:07:04;21.50;58.80
59311;DHT22;45078;51.654;21.250;2022-09-03T11:09:42;21.50;60.60
59311;DHT22;45078;51.654;21.250;2022-09-03T11:12:10;21.60;59.50
59311;DHT22;45078;51.654;21.250;2022-09-03T11:14:44;21.40;58.40
59311;DHT22;45078;51.654;21.250;2022-09-03T11:17:16;21.20;59.50
59311;DHT22;45078;51.654;21.250;2022-09-03T11:20:29;21.30;58.50
59311;DHT22;45078;51.654;21.250;2022-09-03T11:22:30;21.40;58.40
59311;DHT22;45078;51.654;21.250;2022-09-03T11:24:58;21.30;56.20
59311;DHT22;45078;51.654;21.250;2022-09-03T11:30:05;21.50;57.10
59311;DHT22;45078;51.654;21.250;2022-09-03T11:32:46;21.50;58.10
59311;DHT22;45078;51.654;21.250;2022-09-03T11:38:03;21.80;56.50
59311;DHT22;45078;51.654;21.250;2022-09-03T11:40:36;21.60;56.60
59311;DHT22;45078;51.654;21.250;2022-09-03T11:43:26;21.60;56.90
59311;DHT22;45078;51.654;21.250;2022-09-03T11:46:13;21.20;56.30
59311;DHT22;45078;51.654;21.250;2022-09-03T11:49:10;21.30;56.00
59311;DHT22;45078;51.654;21.250;2022-09-03T11:51:37;21.80;58.80
59311;DHT22;45078;51.654;21.250;2022-09-03T11:56:39;22.30;56.40
59311;DHT22;45078;51.654;21.250;2022-09-03T12:01:48;21.80;55.70
59311;DHT22;45078;51.654;21.250;2022-09-03T12:04:18;22.30;58.20
59311;DHT22;45078;51.654;21.250;2022-09-03T12:15:17;22.10;54.20
59311;DHT22;45078;51.654;21.250;2022-09-03T12:18:08;22.50;54.30
59311;DHT22;45078;51.654;21.250;2022-09-03T12:21:03;22.60;54.50
59311;DHT22;45078;51.654;21.250;2022-09-03T12:23:33;22.60;54.00
59311;DHT22;45078;51.654;21.250;2022-09-03T12:26:07;22.70;52.60
59311;DHT22;45078;51.654;21.250;2022-09-03T12:28:37;22.40;54.80
59311;DHT22;45078;51.654;21.250;2022-09-03T12:31:19;22.70;52.50
59311;DHT22;45078;51.654;21.250;2022-09-03T12:33:52;22.90;51.40
59311;DHT22;45078;51.654;21.250;2022-09-03T12:36:22;23.10;51.90
59311;DHT22;45078;51.654;21.250;2022-09-03T12:38:48;22.30;51.30
59311;DHT22;45078;51.654;21.250;2022-09-03T12:41:28;22.70;53.70
59311;DHT22;45078;51.654;21.250;2022-09-03T12:43:57;22.70;53.20
59311;DHT22;45078;51.654;21.250;2022-09-03T12:46:29;23.00;51.50
59311;DHT22;45078;51.654;21.250;2022-09-03T12:49:03;23.30;51.30
59311;DHT22;45078;51.654;21.250;2022-09-03T12:51:40;23.20;50.80
59311;DHT22;45078;51.654;21.250;2022-09-03T12:54:09;23.20;48.00
59311;DHT22;45078;51.654;21.250;2022-09-03T12:56:42;23.60;48.70
59311;DHT22;45078;51.654;21.250;2022-09-03T12:59:16;23.10;48.00
59311;DHT22;45078;51.654;21.250;2022-09-03T13:01:52;22.30;49.30
59311;DHT22;45078;51.654;21.250;2022-09-03T13:04:28;22.20;49.80
59311;DHT22;45078;51.654;21.250;2022-09-03T13:07:03;22.10;51.20
59311;DHT22;45078;51.654;21.250;2022-09-03T13:09:35;22.20;50.30
59311;DHT22;45078;51.654;21.250;2022-09-03T13:12:02;22.20;51.80
59311;DHT22;45078;51.654;21.250;2022-09-03T13:14:46;22.90;50.90
59311;DHT22;45078;51.654;21.250;2022-09-03T13:17:34;22.40;51.90
59311;DHT22;45078;51.654;21.250;2022-09-03T13:20:34;22.20;50.30
59311;DHT22;45078;51.654;21.250;2022-09-03T13:26:23;21.90;49.10
59311;DHT22;45078;51.654;21.250;2022-09-03T13:29:40;22.90;49.60
59311;DHT22;45078;51.654;21.250;2022-09-03T13:31:49;22.30;48.60
59311;DHT22;45078;51.654;21.250;2022-09-03T13:34:41;22.50;50.90
59311;DHT22;45078;51.654;21.250;2022-09-03T13:37:51;22.80;49.00
59311;DHT22;45078;51.654;21.250;2022-09-03T13:40:49;23.50;48.50
59311;DHT22;45078;51.654;21.250;2022-09-03T13:43:36;24.20;48.10
59311;DHT22;45078;51.654;21.250;2022-09-03T13:46:22;23.50;48.10
59311;DHT22;45078;51.654;21.250;2022-09-03T13:48:51;23.10;48.00
59311;DHT22;45078;51.654;21.250;2022-09-03T13:54:22;24.40;47.80
59311;DHT22;45078;51.654;21.250;2022-09-03T13:57:01;24.40;45.00
59311;DHT22;45078;51.654;21.250;2022-09-03T14:05:19;28.80;41.50
59311;DHT22;45078;51.654;21.250;2022-09-03T14:08:04;28.60;41.60
59311;DHT22;45078;51.654;21.250;2022-09-03T14:11:02;28.50;39.30
59311;DHT22;45078;51.654;21.250;2022-09-03T14:19:47;27.20;40.70
59311;DHT22;45078;51.654;21.250;2022-09-03T14:22:43;27.70;39.60
59311;DHT22;45078;51.654;21.250;2022-09-03T14:25:15;27.30;41.20
59311;DHT22;45078;51.654;21.250;2022-09-03T14:27:42;27.80;40.50
59311;DHT22;45078;51.654;21.250;2022-09-03T14:30:37;27.10;40.10
59311;DHT22;45078;51.654;21.250;2022-09-03T14:33:58;27.10;40.30
59311;DHT22;45078;51.654;21.250;2022-09-03T14:45:07;25.20;42.30
59311;DHT22;45078;51.654;21.250;2022-09-03T15:07:54;24.30;43.90
59311;DHT22;45078;51.654;21.250;2022-09-03T15:13:41;25.20;42.80
59311;DHT22;45078;51.654;21.250;2022-09-03T15:22:01;27.30;40.70
59311;DHT22;45078;51.654;21.250;2022-09-03T15:27:42;27.40;39.20
59311;DHT22;45078;51.654;21.250;2022-09-03T15:30:13;26.00;40.60
59311;DHT22;45078;51.654;21.250;2022-09-03T15:32:45;25.40;41.70
59311;DHT22;45078;51.654;21.250;2022-09-03T15:48:49;24.90;42.20
59311;DHT22;45078;51.654;21.250;2022-09-03T15:51:31;24.70;43.10
59311;DHT22;45078;51.654;21.250;2022-09-03T15:56:58;25.20;42.30
59311;DHT22;45078;51.654;21.250;2022-09-03T15:59:54;25.50;42.20
59311;DHT22;45078;51.654;21.250;2022-09-03T16:02:42;25.60;43.10
59311;DHT22;45078;51.654;21.250;2022-09-03T16:05:36;25.60;42.30
59311;DHT22;45078;51.654;21.250;2022-09-03T16:11:11;25.40;42.00
59311;DHT22;45078;51.654;21.250;2022-09-03T16:13:46;24.90;43.10
59311;DHT22;45078;51.654;21.250;2022-09-03T16:16:21;24.50;43.90
59311;DHT22;45078;51.654;21.250;2022-09-03T16:22:03;23.50;46.80
59311;DHT22;45078;51.654;21.250;2022-09-03T16:24:52;22.90;47.70
59311;DHT22;45078;51.654;21.250;2022-09-03T16:27:37;22.40;48.70
59311;DHT22;45078;51.654;21.250;2022-09-03T16:30:20;22.10;52.50
59311;DHT22;45078;51.654;21.250;2022-09-03T16:41:27;21.00;54.10
59311;DHT22;45078;51.654;21.250;2022-09-03T17:02:07;18.70;65.30
59311;DHT22;45078;51.654;21.250;2022-09-03T17:10:45;17.40;73.90
59311;DHT22;45078;51.654;21.250;2022-09-03T17:16:19;17.00;81.20
59311;DHT22;45078;51.654;21.250;2022-09-03T17:19:13;16.70;87.10
59311;DHT22;45078;51.654;21.250;2022-09-03T17:24:34;16.20;94.50
59311;DHT22;45078;51.654;21.250;2022-09-03T17:37:49;15.10;99.90
59311;DHT22;45078;51.654;21.250;2022-09-03T17:48:41;14.50;99.90
59311;DHT22;45078;51.654;21.250;2022-09-03T17:53:49;14.10;99.90
59311;DHT22;45078;51.654;21.250;2022-09-03T18:01:53;13.80;99.90
59311;DHT22;45078;51.654;21.250;2022-09-03T18:04:33;13.70;99.90
59311;DHT22;45078;51.654;21.250;2022-09-03T18:10:17;13.40;99.90
59311;DHT22;45078;51.654;21.250;2022-09-03T18:13:04;13.30;99.90
59311;DHT22;45078;51.654;21.250;2022-09-03T18:15:58;13.30;99.90
59311;DHT22;45078;51.654;21.250;2022-09-03T18:18:33;13.10;99.90
59311;DHT22;45078;51.654;21.250;2022-09-03T18:21:04;13.00;99.90
59311;DHT22;45078;51.654;21.250;2022-09-03T18:23:57;12.90;99.90
59311;DHT22;45078;51.654;21.250;2022-09-03T18:26:55;12.90;99.90
59311;DHT22;45078;51.654;21.250;2022-09-03T18:29:53;12.80;99.90
59311;DHT22;45078;51.654;21.250;2022-09-03T18:32:39;12.60;99.90
59311;DHT22;45078;51.654;21.250;2022-09-03T18:35:24;12.50;99.90
59311;DHT22;45078;51.654;21.250;2022-09-03T18:38:12;12.50;99.90
59311;DHT22;45078;51.654;21.250;2022-09-03T18:50:25;12.40;99.90
59311;DHT22;45078;51.654;21.250;2022-09-03T18:56:48;12.50;99.90
59311;DHT22;45078;51.654;21.250;2022-09-03T19:08:56;12.20;99.90
59311;DHT22;45078;51.654;21.250;2022-09-03T19:15:12;12.10;99.90
59311;DHT22;45078;51.654;21.250;2022-09-03T19:18:05;11.90;99.90
59311;DHT22;45078;51.654;21.250;2022-09-03T19:21:15;11.80;99.90
59311;DHT22;45078;51.654;21.250;2022-09-03T19:24:02;11.80;99.90
59311;DHT22;45078;51.654;21.250;2022-09-03T19:27:13;11.60;99.90
59311;DHT22;45078;51.654;21.250;2022-09-03T19:30:24;11.60;99.90
59311;DHT22;45078;51.654;21.250;2022-09-03T19:33:12;11.50;99.90
59311;DHT22;45078;51.654;21.250;2022-09-03T19:36:19;11.40;99.90
59311;DHT22;45078;51.654;21.250;2022-09-03T19:42:41;11.20;99.90
59311;DHT22;45078;51.654;21.250;2022-09-03T19:51:52;11.00;99.90
59311;DHT22;45078;51.654;21.250;2022-09-03T19:54:39;10.80;99.90
59311;DHT22;45078;51.654;21.250;2022-09-03T19:57:25;10.70;99.90
59311;DHT22;45078;51.654;21.250;2022-09-03T20:00:10;10.70;99.90
59311;DHT22;45078;51.654;21.250;2022-09-03T20:02:55;10.60;99.90
59311;DHT22;45078;51.654;21.250;2022-09-03T20:05:42;10.50;99.90
59311;DHT22;45078;51.654;21.250;2022-09-03T20:08:27;10.40;99.90
59311;DHT22;45078;51.654;21.250;2022-09-03T20:11:20;10.30;99.90
59311;DHT22;45078;51.654;21.250;2022-09-03T20:38:16;10.00;99.90
59311;DHT22;45078;51.654;21.250;2022-09-03T20:41:10;10.00;99.90
59311;DHT22;45078;51.654;21.250;2022-09-03T20:52:09;9.40;99.90
59311;DHT22;45078;51.654;21.250;2022-09-03T21:00:15;9.40;99.90
59311;DHT22;45078;51.654;21.250;2022-09-03T21:03:07;9.30;99.90
59311;DHT22;45078;51.654;21.250;2022-09-03T21:15:27;9.50;99.90
59311;DHT22;45078;51.654;21.250;2022-09-03T21:17:54;9.40;99.90
59311;DHT22;45078;51.654;21.250;2022-09-03T21:23:42;9.30;99.90
59311;DHT22;45078;51.654;21.250;2022-09-03T21:26:26;9.30;99.90
59311;DHT22;45078;51.654;21.250;2022-09-03T21:29:42;9.20;99.90
59311;DHT22;45078;51.654;21.250;2022-09-03T21:37:17;9.20;99.90
59311;DHT22;45078;51.654;21.250;2022-09-03T21:39:50;9.30;99.90
59311;DHT22;45078;51.654;21.250;2022-09-03T21:45:13;9.20;99.90
59311;DHT22;45078;51.654;21.250;2022-09-03T21:47:47;9.20;99.90
59311;DHT22;45078;51.654;21.250;2022-09-03T21:50:17;9.20;99.90
59311;DHT22;45078;51.654;21.250;2022-09-03T21:55:46;9.20;99.90
59311;DHT22;45078;51.654;21.250;2022-09-03T22:01:16;9.10;99.90
59311;DHT22;45078;51.654;21.250;2022-09-03T22:03:44;9.10;99.90
59311;DHT22;45078;51.654;21.250;2022-09-03T22:06:37;9.00;99.90
59311;DHT22;45078;51.654;21.250;2022-09-03T22:09:23;9.10;99.90
59311;DHT22;45078;51.654;21.250;2022-09-03T22:12:05;9.00;99.90
59311;DHT22;45078;51.654;21.250;2022-09-03T22:14:44;9.00;99.90
59311;DHT22;45078;51.654;21.250;2022-09-03T22:17:36;8.90;99.90
59311;DHT22;45078;51.654;21.250;2022-09-03T22:20:10;8.90;99.90
59311;DHT22;45078;51.654;21.250;2022-09-03T22:25:51;8.80;99.90